イスタンブル の空港の天気 - METARとTAF

アタテュルク国際空港(イスタンブル) ( LTBA / IST ) - トルコ イスタンブル
飛行場実況気象(Metar)
観測時間01/23 04:20 EET (01/23 01:20 UTC)
風向・風速南南西 3m/s
視程10km以上
天気現象
少しの雲 雲底高度 1220m
全天の4割程度の雲 雲底高度 2740m
気温11℃
湿度76%
気圧1020hPa
METARLTBA 230120Z 21006KT 170V230 9999 FEW040 SCT090 11/07 Q1020 NOSIG RMK RWY23 22006KT
過去の天気等 Google飛行場航空写真 Wunderground天気予報

過去48時間のMETAR

飛行場予報(TAF)
発表時間: 1/23 01:40 EET (1/22 22:40 UTC)
予報対象時間: 23日3時 EET ~ 24日9時 EET
風向・風速南南西 8m/s
視程10km以上
全天の4割程度の雲 雲底高度 1070m
全天の8割程度の雲 雲底高度 2740m
23日9時 EET ~ 23日12時 EET に徐々に
視程10km以上
なし
23日15時 EET ~ 23日18時 EET に一時的に
風向・風速南南西 8m/s 瞬間風速 14m/s
23日18時 EET ~ 23日21時 EET に徐々に
全天の4割程度の雲 雲底高度 1070m
全天の8割程度の雲 雲底高度 2740m
24日3時 EET ~ 24日6時 EET に徐々に
天気現象弱いしゅう雨
全天の8割程度の雲 雲底高度 760m
全天の8割程度の雲 雲底高度 2440m
TAF LTBA 222240Z 2300/2406 21015KT 9999 SCT035 BKN090
BECMG 2306/2309 CAVOK
TEMPO 2312/2315 21015G27KT
BECMG 2315/2318 SCT035 BKN090
BECMG 2400/2403 -SHRA BKN025 BKN080